Ritzville, Washington
Current Conditions -  °F | °C
As of 7:52 PM on Wednesday 22 Oct 2014 (Local Time) from KMWH Reporting Station
Overcast Overcast  
Wind Chill: 57°   Ceiling: 5000
Heat Index: 57°   Visibility: 10mi
Dew Point: 50°   Wind: 20mph
Humidity: 77%   Direction: 160°SSE
Pressure: 29.68"   Gusts: NA
Location:  47.13°N, 118.38°W
Report Text: KMWH 230252Z 16017KT 10SM BKN050 OVC070 14/10 A2968 RMK AO2 RAE35 SLP050 P0001 60002 T01390100 56018
Loading
Personal Weather Stations






























Interactive Weather Map
Tropical Storm Tracking
New forecast layout! Learn more

10-Day Weather Forecast

Advertisements
Track Severe Weather on mobile